createdAt,value
2019-04-29T00:02:59.963Z,6.60
2019-04-29T00:06:02.236Z,6.60
2019-04-29T00:09:06.872Z,6.60
2019-04-29T00:12:07.931Z,6.60
2019-04-29T00:16:20.651Z,6.60
2019-04-29T00:21:29.415Z,6.60
2019-04-29T00:24:31.643Z,6.60
2019-04-29T00:27:33.933Z,6.60
2019-04-29T00:30:36.228Z,6.60
2019-04-29T00:33:38.455Z,6.60
2019-04-29T00:36:45.237Z,6.50
2019-04-29T00:40:00.956Z,6.50
2019-04-29T00:43:12.712Z,6.50
2019-04-29T00:46:15.105Z,6.50
2019-04-29T00:49:17.319Z,6.50
2019-04-29T00:52:19.551Z,6.50
2019-04-29T00:55:22.843Z,6.50
2019-04-29T00:58:25.070Z,6.50
2019-04-29T01:01:27.349Z,6.50
2019-04-29T01:04:29.627Z,6.50
2019-04-29T01:07:31.891Z,6.50
2019-04-29T01:10:34.116Z,6.50
2019-04-29T01:13:36.351Z,6.50
2019-04-29T01:16:38.631Z,6.50
2019-04-29T01:19:40.852Z,6.50
2019-04-29T01:22:43.083Z,6.50
2019-04-29T01:25:45.806Z,6.50
2019-04-29T01:28:51.088Z,6.50
2019-04-29T01:31:53.323Z,6.50
2019-04-29T01:34:55.596Z,6.50
2019-04-29T01:37:57.868Z,6.50
2019-04-29T01:41:04.859Z,6.50
2019-04-29T01:44:07.844Z,6.50
2019-04-29T01:47:10.214Z,6.50
2019-04-29T01:50:12.447Z,6.50
2019-04-29T01:53:14.664Z,6.40
2019-04-29T01:56:16.943Z,6.40
2019-04-29T01:59:19.342Z,6.40
2019-04-29T02:02:21.603Z,6.40
2019-04-29T02:05:23.908Z,6.40
2019-04-29T02:08:26.115Z,6.40
2019-04-29T02:11:28.367Z,6.40
2019-04-29T02:14:30.631Z,6.40
2019-04-29T02:17:32.822Z,6.40
2019-04-29T02:20:35.008Z,6.40
2019-04-29T02:24:43.099Z,6.40
2019-04-29T02:27:45.319Z,6.40
2019-04-29T02:30:48.028Z,6.40
2019-04-29T02:33:50.254Z,6.40
2019-04-29T02:36:52.490Z,6.40
2019-04-29T02:39:59.314Z,6.40
2019-04-29T02:43:06.777Z,6.40
2019-04-29T02:46:08.980Z,6.40
2019-04-29T02:49:11.198Z,6.40
2019-04-29T02:52:13.443Z,6.40
2019-04-29T02:55:18.188Z,6.40
2019-04-29T02:58:39.351Z,6.40
2019-04-29T03:01:48.047Z,6.30
2019-04-29T03:05:26.577Z,6.30
2019-04-29T03:08:28.853Z,6.30
2019-04-29T03:11:31.066Z,6.30
2019-04-29T03:14:33.338Z,6.30
2019-04-29T03:17:35.628Z,6.30
2019-04-29T03:20:42.523Z,6.20
2019-04-29T03:23:44.773Z,6.20
2019-04-29T03:26:47.035Z,6.20
2019-04-29T03:29:49.306Z,6.20
2019-04-29T03:32:51.521Z,6.20
2019-04-29T03:35:53.755Z,6.20
2019-04-29T03:38:55.957Z,6.10
2019-04-29T03:41:58.176Z,6.20
2019-04-29T03:45:00.404Z,6.20
2019-04-29T03:48:02.779Z,6.20
2019-04-29T03:51:05.015Z,6.20
2019-04-29T03:54:08.934Z,6.10
2019-04-29T03:57:11.220Z,6.10
2019-04-29T04:00:13.540Z,6.10
2019-04-29T04:03:26.163Z,6.00
2019-04-29T04:06:36.233Z,6.00
2019-04-29T04:09:38.489Z,6.00
2019-04-29T04:12:40.776Z,6.00
2019-04-29T04:15:43.013Z,5.90
2019-04-29T04:18:45.277Z,5.90
2019-04-29T04:21:47.487Z,5.90
2019-04-29T04:24:51.788Z,5.90
2019-04-29T04:27:54.029Z,5.80
2019-04-29T04:30:56.395Z,5.80
2019-04-29T04:33:58.540Z,5.80
2019-04-29T04:37:00.775Z,5.80
2019-04-29T04:40:03.383Z,5.80
2019-04-29T04:43:05.676Z,5.80
2019-04-29T04:46:07.921Z,5.80
2019-04-29T04:49:10.173Z,5.80
2019-04-29T04:52:12.419Z,5.80
2019-04-29T04:55:14.683Z,5.80
2019-04-29T04:58:16.926Z,5.80
2019-04-29T05:01:19.224Z,5.80
2019-04-29T05:04:21.433Z,5.90
2019-04-29T05:07:23.671Z,5.90
2019-04-29T05:10:25.888Z,5.90
2019-04-29T05:13:28.822Z,5.90
2019-04-29T05:16:30.464Z,6.00
2019-04-29T05:19:32.728Z,6.00
2019-04-29T05:22:34.931Z,6.10
2019-04-29T05:25:37.191Z,6.20
2019-04-29T05:28:39.547Z,6.20
2019-04-29T05:31:41.773Z,6.30
2019-04-29T05:34:46.548Z,6.30
2019-04-29T05:37:51.669Z,6.40
2019-04-29T05:40:56.753Z,6.50
2019-04-29T05:44:01.824Z,6.50
2019-04-29T05:47:07.075Z,6.60
2019-04-29T05:50:26.846Z,6.60
2019-04-29T05:53:33.216Z,6.70
2019-04-29T05:56:35.449Z,6.70
2019-04-29T05:59:37.653Z,6.70
2019-04-29T06:02:39.901Z,6.80
2019-04-29T06:05:42.123Z,6.80
2019-04-29T06:08:44.363Z,6.70
2019-04-29T06:11:46.715Z,6.80
2019-04-29T06:14:49.025Z,6.80
2019-04-29T06:17:51.246Z,6.80
2019-04-29T06:20:53.527Z,6.80
2019-04-29T06:23:59.366Z,6.80
2019-04-29T06:26:58.024Z,6.80
2019-04-29T06:30:03.218Z,6.80
2019-04-29T06:33:02.484Z,6.80
2019-04-29T06:36:04.821Z,6.80
2019-04-29T06:39:07.196Z,6.80
2019-04-29T06:42:09.432Z,6.80
2019-04-29T06:45:11.755Z,6.80
2019-04-29T06:48:13.999Z,6.90
2019-04-29T06:51:16.228Z,6.90
2019-04-29T06:54:18.440Z,6.90
2019-04-29T06:57:20.704Z,7.00
2019-04-29T07:00:24.018Z,7.00
2019-04-29T07:03:26.587Z,7.10
2019-04-29T07:06:27.409Z,7.10
2019-04-29T07:09:29.641Z,7.00
2019-04-29T07:12:31.867Z,7.00
2019-04-29T07:15:34.143Z,7.10
2019-04-29T07:18:39.851Z,7.10
2019-04-29T07:21:41.789Z,7.20
2019-04-29T07:24:40.946Z,7.20
2019-04-29T07:27:44.612Z,7.20
2019-04-29T07:31:00.627Z,7.20
2019-04-29T07:33:48.051Z,7.20
2019-04-29T07:36:53.166Z,7.20
2019-04-29T07:39:52.644Z,7.20
2019-04-29T07:42:54.901Z,7.30
2019-04-29T07:46:07.692Z,7.30
2019-04-29T07:49:12.702Z,7.30
2019-04-29T07:52:14.603Z,7.40
2019-04-29T07:55:14.735Z,7.50
2019-04-29T07:58:17.157Z,7.50
2019-04-29T08:01:19.931Z,7.50
2019-04-29T08:04:21.794Z,7.60
2019-04-29T08:07:24.229Z,7.60
2019-04-29T08:10:28.560Z,7.70
2019-04-29T08:13:29.239Z,7.70
2019-04-29T08:16:31.611Z,7.80
2019-04-29T08:19:33.829Z,7.80
2019-04-29T08:22:36.199Z,7.90
2019-04-29T08:25:38.499Z,8.00
2019-04-29T08:28:40.732Z,8.00
2019-04-29T08:31:42.996Z,8.10
2019-04-29T08:34:45.296Z,8.10
2019-04-29T08:37:47.645Z,8.20
2019-04-29T08:40:51.622Z,8.20
2019-04-29T08:44:14.681Z,8.20
2019-04-29T08:47:06.695Z,8.20
2019-04-29T08:50:09.192Z,8.30
2019-04-29T08:53:11.523Z,8.40
2019-04-29T08:56:13.823Z,8.40
2019-04-29T08:59:16.047Z,8.50
2019-04-29T09:02:33.050Z,8.60
2019-04-29T09:05:20.632Z,8.70
2019-04-29T09:08:22.925Z,8.70
2019-04-29T09:11:25.176Z,8.70
2019-04-29T09:14:27.411Z,8.70
2019-04-29T09:17:29.691Z,8.70
2019-04-29T09:20:31.949Z,8.70
2019-04-29T09:23:34.223Z,8.90
2019-04-29T09:26:40.080Z,9.00
2019-04-29T09:30:13.316Z,9.10
2019-04-29T09:33:15.635Z,9.20
2019-04-29T09:36:17.939Z,9.30
2019-04-29T09:39:21.384Z,9.30
2019-04-29T09:42:32.015Z,9.40
2019-04-29T09:45:45.536Z,9.50
2019-04-29T09:48:47.835Z,9.50
2019-04-29T09:51:50.100Z,9.40
2019-04-29T09:54:52.360Z,9.40
2019-04-29T09:57:54.740Z,9.40
2019-04-29T10:01:03.325Z,9.30
2019-04-29T10:04:11.159Z,9.30
2019-04-29T10:07:13.540Z,9.30
2019-04-29T10:10:15.844Z,9.20
2019-04-29T10:13:18.183Z,9.20
2019-04-29T10:16:45.980Z,9.20
2019-04-29T10:20:54.324Z,9.20
2019-04-29T10:23:56.591Z,9.20
2019-04-29T10:26:59.039Z,9.30
2019-04-29T10:30:01.338Z,9.30
2019-04-29T10:33:03.642Z,9.40
2019-04-29T10:36:06.113Z,9.50
2019-04-29T10:39:13.811Z,9.60
2019-04-29T10:42:22.971Z,9.70
2019-04-29T10:45:30.598Z,9.70
2019-04-29T10:48:37.390Z,9.70
2019-04-29T10:51:39.723Z,9.70
2019-04-29T10:54:42.018Z,9.60
2019-04-29T10:57:44.925Z,9.50
2019-04-29T11:01:14.515Z,9.50
2019-04-29T11:04:16.799Z,9.40
2019-04-29T11:07:27.794Z,9.40
2019-04-29T11:10:30.284Z,9.40
2019-04-29T11:13:32.557Z,9.40
2019-04-29T11:16:46.087Z,9.50
2019-04-29T11:19:40.059Z,9.50
2019-04-29T11:22:44.601Z,9.50
2019-04-29T11:26:24.332Z,9.40
2019-04-29T11:29:29.000Z,9.40
2019-04-29T11:32:35.973Z,9.30
2019-04-29T11:36:10.900Z,9.30
2019-04-29T11:39:14.204Z,9.20
2019-04-29T11:42:16.103Z,9.10
2019-04-29T11:45:18.410Z,9.00
2019-04-29T11:48:20.709Z,8.90
2019-04-29T11:51:27.395Z,9.00
2019-04-29T11:54:29.684Z,9.10
2019-04-29T11:57:41.055Z,9.10
2019-04-29T12:00:47.428Z,9.20
2019-04-29T12:03:51.555Z,9.30
2019-04-29T12:06:56.243Z,9.20
2019-04-29T12:09:54.347Z,9.10
2019-04-29T12:12:56.716Z,9.10
2019-04-29T12:16:07.327Z,9.00
2019-04-29T12:19:17.214Z,9.00
2019-04-29T12:22:28.357Z,8.90
2019-04-29T12:25:22.990Z,8.90
2019-04-29T12:28:23.416Z,9.00
2019-04-29T12:31:30.043Z,9.10
2019-04-29T12:34:40.856Z,9.10
2019-04-29T12:37:48.781Z,9.20
2019-04-29T12:40:58.614Z,9.30
2019-04-29T12:44:04.413Z,9.30
2019-04-29T12:47:25.848Z,9.40
2019-04-29T12:50:21.551Z,9.50
2019-04-29T12:53:19.779Z,9.50
2019-04-29T12:56:26.708Z,9.60
2019-04-29T12:59:30.575Z,9.60
2019-04-29T13:02:37.681Z,9.50
2019-04-29T13:06:02.510Z,9.40
2019-04-29T13:09:17.539Z,9.40
2019-04-29T13:12:18.956Z,9.30
2019-04-29T13:15:17.875Z,9.20
2019-04-29T13:18:24.712Z,8.90
2019-04-29T13:21:27.025Z,8.50
2019-04-29T13:24:29.791Z,8.30
2019-04-29T13:27:32.031Z,8.20
2019-04-29T13:30:34.399Z,8.10
2019-04-29T13:33:36.680Z,8.00
2019-04-29T13:36:38.988Z,8.00
2019-04-29T13:39:41.254Z,8.10
2019-04-29T13:42:48.540Z,8.00
2019-04-29T13:45:50.232Z,8.00
2019-04-29T13:49:12.346Z,7.90
2019-04-29T13:52:03.556Z,7.80
2019-04-29T13:55:17.162Z,7.60
2019-04-29T13:58:08.190Z,7.50
2019-04-29T14:01:23.754Z,7.40
2019-04-29T14:04:26.266Z,7.30
2019-04-29T14:07:27.620Z,7.40
2019-04-29T14:10:29.943Z,7.40
2019-04-29T14:13:32.277Z,7.50
2019-04-29T14:16:34.624Z,7.60
2019-04-29T14:19:42.352Z,7.70
2019-04-29T14:22:39.303Z,7.70
2019-04-29T14:25:41.623Z,7.80
2019-04-29T14:28:43.845Z,7.80
2019-04-29T14:31:46.906Z,7.80
2019-04-29T14:34:55.398Z,7.90
2019-04-29T14:38:04.388Z,7.90
2019-04-29T14:41:00.491Z,8.00
2019-04-29T14:44:08.312Z,8.10
2019-04-29T14:47:15.923Z,8.10
2019-04-29T14:50:20.726Z,8.10
2019-04-29T14:53:24.265Z,8.10
2019-04-29T14:56:22.805Z,8.00
2019-04-29T14:59:25.267Z,8.00
2019-04-29T15:02:27.639Z,8.00
2019-04-29T15:05:32.826Z,8.00
2019-04-29T15:08:36.148Z,7.90
2019-04-29T15:11:41.179Z,7.90
2019-04-29T15:14:48.968Z,7.90
2019-04-29T15:17:57.098Z,7.80
2019-04-29T15:22:07.008Z,7.80
2019-04-29T15:25:09.279Z,7.80
2019-04-29T15:28:11.531Z,7.80
2019-04-29T15:31:15.682Z,7.80
2019-04-29T15:34:15.989Z,7.80
2019-04-29T15:37:18.206Z,7.90
2019-04-29T15:40:25.481Z,7.90
2019-04-29T15:43:45.213Z,7.90
2019-04-29T15:46:25.115Z,7.90
2019-04-29T15:49:27.402Z,7.90
2019-04-29T15:52:29.647Z,7.90
2019-04-29T15:55:34.946Z,8.00
2019-04-29T15:58:34.212Z,8.00
2019-04-29T16:01:41.099Z,7.90
2019-04-29T16:04:42.379Z,7.90
2019-04-29T16:07:55.784Z,8.00
2019-04-29T16:11:01.945Z,8.00
2019-04-29T16:17:07.195Z,8.00
2019-04-29T16:20:12.715Z,7.90
2019-04-29T16:23:14.943Z,8.00
2019-04-29T16:26:17.183Z,7.90
2019-04-29T16:29:19.391Z,7.90
2019-04-29T16:32:26.229Z,7.90
2019-04-29T16:35:34.505Z,7.80
2019-04-29T16:38:30.755Z,7.80
2019-04-29T16:41:45.391Z,7.80
2019-04-29T16:44:47.736Z,7.80
2019-04-29T16:47:50.137Z,7.80
2019-04-29T16:50:52.504Z,7.80
2019-04-29T16:53:54.923Z,7.80
2019-04-29T16:56:57.003Z,7.80
2019-04-29T16:59:59.527Z,7.80
2019-04-29T17:03:01.743Z,7.70
2019-04-29T17:06:03.978Z,7.70
2019-04-29T17:09:11.591Z,7.70
2019-04-29T17:12:14.036Z,7.70
2019-04-29T17:15:24.588Z,7.60
2019-04-29T17:18:18.676Z,7.60
2019-04-29T17:21:20.823Z,7.60
2019-04-29T17:24:23.111Z,7.60
2019-04-29T17:28:01.747Z,7.50
2019-04-29T17:31:12.666Z,7.50
2019-04-29T17:34:29.432Z,7.50
2019-04-29T17:35:17.729Z,8.00
2019-04-29T17:37:19.568Z,7.50
2019-04-29T17:40:21.853Z,7.50
2019-04-29T17:43:29.632Z,7.50
2019-04-29T17:46:37.315Z,7.50
2019-04-29T17:49:45.172Z,7.50
2019-04-29T17:52:47.463Z,7.50
2019-04-29T17:55:58.225Z,7.40
2019-04-29T17:59:06.007Z,7.40
2019-04-29T18:02:20.807Z,7.40
2019-04-29T18:05:32.988Z,7.40
2019-04-29T18:08:36.643Z,7.30
2019-04-29T18:11:50.528Z,7.40
2019-04-29T18:14:41.890Z,7.30
2019-04-29T18:17:45.417Z,7.30
2019-04-29T18:20:55.143Z,7.30
2019-04-29T18:24:00.827Z,7.20
2019-04-29T18:27:06.076Z,7.20
2019-04-29T18:30:12.323Z,7.20
2019-04-29T18:33:10.703Z,7.20
2019-04-29T18:36:21.866Z,7.10
2019-04-29T18:39:20.108Z,7.20
2019-04-29T18:42:21.008Z,7.10
2019-04-29T18:45:25.481Z,7.20
2019-04-29T18:48:27.133Z,7.20
2019-04-29T18:51:28.859Z,7.20
2019-04-29T18:54:30.057Z,7.20
2019-04-29T18:57:32.252Z,7.20
2019-04-29T19:00:34.883Z,7.20
2019-04-29T19:03:42.149Z,7.10
2019-04-29T19:06:44.436Z,7.10
2019-04-29T19:13:00.120Z,7.00
2019-04-29T19:16:09.105Z,7.00
2019-04-29T19:19:01.747Z,7.00
2019-04-29T19:22:05.791Z,7.00
2019-04-29T19:25:08.731Z,7.00
2019-04-29T19:28:14.270Z,7.00
2019-04-29T19:31:09.939Z,7.00
2019-04-29T19:34:14.810Z,7.00
2019-04-29T19:37:15.370Z,6.90
2019-04-29T19:40:16.207Z,6.90
2019-04-29T19:43:19.015Z,6.90
2019-04-29T19:46:24.308Z,6.80
2019-04-29T19:49:23.089Z,6.80
2019-04-29T19:52:31.323Z,6.80
2019-04-29T19:55:27.814Z,6.80
2019-04-29T19:58:31.833Z,6.80
2019-04-29T20:01:33.092Z,6.80
2019-04-29T20:04:52.431Z,6.80
2019-04-29T20:07:51.782Z,6.70
2019-04-29T20:10:54.878Z,6.80
2019-04-29T20:14:04.351Z,6.70
2019-04-29T20:17:12.863Z,6.80
2019-04-29T20:20:16.604Z,6.80
2019-04-29T20:23:24.750Z,6.70
2019-04-29T20:26:28.518Z,6.80
2019-04-29T20:29:28.583Z,6.80
2019-04-29T20:32:27.887Z,6.80
2019-04-29T20:35:27.748Z,6.80
2019-04-29T20:38:34.130Z,6.70
2019-04-29T20:41:41.184Z,6.80
2019-04-29T20:44:36.650Z,6.80
2019-04-29T20:47:40.547Z,6.80
2019-04-29T20:50:40.815Z,6.80
2019-04-29T20:53:46.136Z,6.80
2019-04-29T20:56:47.319Z,6.80
2019-04-29T20:59:50.579Z,6.80
2019-04-29T21:02:51.474Z,6.80
2019-04-29T21:05:54.950Z,6.80
2019-04-29T21:08:55.866Z,6.80
2019-04-29T21:12:20.412Z,6.70
2019-04-29T21:15:24.947Z,6.70
2019-04-29T21:18:27.081Z,6.70
2019-04-29T21:21:29.019Z,6.60
2019-04-29T21:24:31.255Z,6.70
2019-04-29T21:27:35.196Z,6.60
2019-04-29T21:30:42.324Z,6.60
2019-04-29T21:33:38.047Z,6.60
2019-04-29T21:36:45.751Z,6.60
2019-04-29T21:39:58.152Z,6.60
2019-04-29T21:43:13.472Z,6.60
2019-04-29T21:46:11.345Z,6.60
2019-04-29T21:49:13.548Z,6.60
2019-04-29T21:52:19.734Z,6.60
2019-04-29T21:55:20.513Z,6.60
2019-04-29T21:58:20.331Z,6.60
2019-04-29T22:01:22.598Z,6.60
2019-04-29T22:04:24.866Z,6.50
2019-04-29T22:07:27.101Z,6.50
2019-04-29T22:10:29.306Z,6.40
2019-04-29T22:13:37.520Z,6.40
2019-04-29T22:16:35.650Z,6.50
2019-04-29T22:19:36.135Z,6.50
2019-04-29T22:22:38.390Z,6.50
2019-04-29T22:25:41.199Z,6.40
2019-04-29T22:28:42.920Z,6.40
2019-04-29T22:31:45.885Z,6.40
2019-04-29T22:34:49.581Z,6.40
2019-04-29T22:37:49.671Z,6.40
2019-04-29T22:40:51.936Z,6.40
2019-04-29T22:43:57.771Z,6.40
2019-04-29T22:46:59.995Z,6.40
2019-04-29T22:50:03.143Z,6.40
2019-04-29T22:53:07.284Z,6.40
2019-04-29T22:56:08.958Z,6.40
2019-04-29T22:59:08.951Z,6.40
2019-04-29T23:02:11.195Z,6.40
2019-04-29T23:05:13.443Z,6.40
2019-04-29T23:08:15.716Z,6.40
2019-04-29T23:11:17.903Z,6.40
2019-04-29T23:14:20.093Z,6.40
2019-04-29T23:17:22.314Z,6.40
2019-04-29T23:20:30.127Z,6.40
2019-04-29T23:23:38.204Z,6.40
2019-04-29T23:26:42.318Z,6.30
2019-04-29T23:29:43.272Z,6.40
2019-04-29T23:32:44.294Z,6.30
2019-04-29T23:35:45.697Z,6.30
2019-04-29T23:38:47.915Z,6.30
2019-04-29T23:41:50.134Z,6.30
2019-04-29T23:44:52.335Z,6.40
2019-04-29T23:47:55.586Z,6.40
2019-04-29T23:50:58.250Z,6.30
2019-04-29T23:54:03.737Z,6.30
2019-04-29T23:57:08.951Z,6.40
